Wetterdaten: Woche 08.08.22 - 14.08.22 (KW32)
Datum Zeit Temp. Aussen Temp. o. S. Temp +5cm Feuchte Auss Luftdruck Regen Sonnenschein Regendauer Solar Windben Empfang
08.08.2022 00:00 18,4 C 17,4 C 13,9 C 67 % 1024,1 hPa 0,0 l/m 0,00 h 0,00 h 0 W/m 5,7 km/h (1 Bft) 97,46 %
08.08.2022 01:00 17,7 C 16,6 C 13,1 C 70 % 1024,2 hPa 0,0 l/m 0,00 h 0,00 h 0 W/m 6,2 km/h (2 Bft) 97,06 %
08.08.2022 02:00 16,9 C 15,8 C 12,4 C 74 % 1024,1 hPa 0,0 l/m 0,00 h 0,00 h 0 W/m 5,3 km/h (1 Bft) 97,57 %
08.08.2022 03:00 16,0 C 15,0 C 11,7 C 78 % 1024,1 hPa 0,0 l/m 0,00 h 0,00 h 0 W/m 3,8 km/h (1 Bft) 96,29 %
08.08.2022 04:00 15,3 C 14,2 C 10,9 C 81 % 1024,1 hPa 0,0 l/m 0,00 h 0,00 h 0 W/m 3,7 km/h (1 Bft) 97,65 %
08.08.2022 05:00 14,4 C 13,3 C 10,2 C 85 % 1024,2 hPa 0,0 l/m 0,00 h 0,00 h 0 W/m 1,3 km/h (1 Bft) 96,65 %
08.08.2022 06:00 14,1 C 13,2 C 10,1 C 88 % 1024,6 hPa 0,0 l/m 0,00 h 0,00 h 14 W/m 2,5 km/h (1 Bft) 98,66 %
08.08.2022 07:00 14,6 C 14,3 C 10,9 C 89 % 1024,8 hPa 0,0 l/m 0,00 h 0,00 h 35 W/m 4,7 km/h (1 Bft) 98,44 %
08.08.2022 08:00 16,1 C 16,2 C 12,3 C 84 % 1025,1 hPa 0,0 l/m 0,60 h 0,00 h 219 W/m 8,3 km/h (2 Bft) 95,74 %
08.08.2022 09:00 19,4 C 24,7 C 16,6 C 73 % 1025,4 hPa 0,0 l/m 1,00 h 0,00 h 478 W/m 10,0 km/h (2 Bft) 98,38 %
08.08.2022 10:00 21,0 C 23,0 C 16,5 C 66 % 1025,7 hPa 0,0 l/m 1,00 h 0,00 h 590 W/m 12,9 km/h (3 Bft) 98,43 %
08.08.2022 11:00 22,5 C 23,9 C 18,2 C 61 % 1025,7 hPa 0,0 l/m 1,00 h 0,00 h 705 W/m 12,6 km/h (3 Bft) 97,65 %
08.08.2022 12:00 24,3 C 26,8 C 22,8 C 55 % 1025,6 hPa 0,0 l/m 1,00 h 0,00 h 834 W/m 12,9 km/h (3 Bft) 97,57 %
08.08.2022 13:00 25,6 C 26,9 C 20,3 C 52 % 1025,4 hPa 0,0 l/m 1,00 h 0,00 h 871 W/m 13,1 km/h (3 Bft) 96,95 %
08.08.2022 14:00 26,1 C 28,4 C 20,8 C 52 % 1025,2 hPa 0,0 l/m 0,97 h 0,00 h 840 W/m 16,8 km/h (3 Bft) 99,57 %
08.08.2022 15:00 26,6 C 29,8 C 21,1 C 49 % 1024,9 hPa 0,0 l/m 1,00 h 0,00 h 794 W/m 16,6 km/h (3 Bft) 95,31 %
08.08.2022 16:00 26,9 C 31,8 C 21,6 C 47 % 1024,8 hPa 0,0 l/m 1,00 h 0,00 h 687 W/m 14,7 km/h (3 Bft) 99,00 %
08.08.2022 17:00 27,1 C 32,9 C 22,7 C 46 % 1024,6 hPa 0,0 l/m 1,00 h 0,00 h 545 W/m 14,0 km/h (3 Bft) 98,15 %
08.08.2022 18:00 26,7 C 31,6 C 22,3 C 50 % 1024,3 hPa 0,0 l/m 1,00 h 0,00 h 372 W/m 15,2 km/h (3 Bft) 96,25 %
08.08.2022 19:00 24,9 C 24,6 C 20,1 C 54 % 1024,5 hPa 0,0 l/m 0,33 h 0,00 h 110 W/m 13,7 km/h (3 Bft) 97,90 %
08.08.2022 20:00 23,5 C 22,6 C 18,4 C 59 % 1024,8 hPa 0,0 l/m 0,00 h 0,00 h 21 W/m 9,8 km/h (2 Bft) 98,14 %
08.08.2022 21:00 22,3 C 21,1 C 17,3 C 62 % 1025,5 hPa 0,0 l/m 0,00 h 0,00 h 6 W/m 7,0 km/h (2 Bft) 96,73 %
08.08.2022 22:00 21,1 C 19,9 C 16,3 C 65 % 1025,9 hPa 0,0 l/m 0,00 h 0,00 h 0 W/m 5,5 km/h (1 Bft) 98,48 %
08.08.2022 23:00 20,1 C 19,1 C 15,5 C 69 % 1026,1 hPa 0,0 l/m 0,00 h 0,00 h 0 W/m 9,9 km/h (2 Bft) 96,94 %
09.08.2022 00:00 19,3 C 18,2 C 14,7 C 73 % 1026,4 hPa 0,0 l/m 0,00 h 0,00 h 0 W/m 5,7 km/h (1 Bft) 91,98 %
09.08.2022 01:00 18,5 C 17,5 C 14,0 C 76 % 1026,4 hPa 0,0 l/m 0,00 h 0,00 h 0 W/m 5,0 km/h (1 Bft) 98,65 %
09.08.2022 02:00 18,0 C 17,0 C 13,6 C 78 % 1026,3 hPa 0,0 l/m 0,00 h 0,00 h 0 W/m 5,2 km/h (1 Bft) 95,73 %
09.08.2022 03:00 17,6 C 16,7 C 13,2 C 80 % 1026,4 hPa 0,0 l/m 0,00 h 0,00 h 0 W/m 5,9 km/h (2 Bft) 97,48 %
09.08.2022 04:00 17,2 C 16,2 C 12,8 C 81 % 1026,4 hPa 0,0 l/m 0,00 h 0,00 h 0 W/m 5,3 km/h (1 Bft) 97,53 %
09.08.2022 05:00 16,7 C 15,7 C 12,3 C 83 % 1026,3 hPa 0,0 l/m 0,00 h 0,00 h 0 W/m 4,5 km/h (1 Bft) 96,10 %
09.08.2022 06:00 16,2 C 15,6 C 12,2 C 86 % 1026,5 hPa 0,0 l/m 0,00 h 0,00 h 12 W/m 4,1 km/h (1 Bft) 97,08 %
09.08.2022 07:00 16,6 C 16,0 C 12,6 C 86 % 1026,9 hPa 0,0 l/m 0,00 h 0,00 h 28 W/m 7,0 km/h (2 Bft) 98,86 %
09.08.2022 08:00 17,7 C 17,6 C 13,6 C 84 % 1027,0 hPa 0,0 l/m 0,57 h 0,00 h 205 W/m 10,2 km/h (2 Bft) 94,52 %
09.08.2022 09:00 20,6 C 25,6 C 17,2 C 74 % 1027,1 hPa 0,0 l/m 1,00 h 0,00 h 466 W/m 11,2 km/h (2 Bft) 99,00 %
09.08.2022 10:00 22,4 C 24,7 C 17,5 C 68 % 1027,3 hPa 0,0 l/m 1,00 h 0,00 h 618 W/m 12,9 km/h (3 Bft) 97,51 %
09.08.2022 11:00 24,1 C 25,1 C 19,4 C 61 % 1027,4 hPa 0,0 l/m 1,00 h 0,00 h 743 W/m 15,1 km/h (3 Bft) 97,51 %
09.08.2022 12:00 26,0 C 28,4 C 23,4 C 56 % 1027,4 hPa 0,0 l/m 1,00 h 0,00 h 825 W/m 14,4 km/h (3 Bft) 97,39 %
09.08.2022 13:00 27,0 C 28,3 C 21,8 C 53 % 1027,0 hPa 0,0 l/m 1,00 h 0,00 h 864 W/m 16,5 km/h (3 Bft) 97,78 %
09.08.2022 14:00 28,0 C 30,9 C 22,5 C 50 % 1026,6 hPa 0,0 l/m 1,00 h 0,00 h 848 W/m 15,1 km/h (3 Bft) 97,71 %
09.08.2022 15:00 29,0 C 32,3 C 23,1 C 46 % 1026,1 hPa 0,0 l/m 1,00 h 0,00 h 789 W/m 13,0 km/h (3 Bft) 97,44 %
09.08.2022 16:00 29,5 C 34,6 C 24,0 C 45 % 1025,8 hPa 0,0 l/m 1,00 h 0,00 h 681 W/m 12,1 km/h (2 Bft) 98,15 %
09.08.2022 17:00 29,8 C 35,2 C 25,0 C 44 % 1025,5 hPa 0,0 l/m 1,00 h 0,00 h 534 W/m 12,2 km/h (3 Bft) 97,37 %
09.08.2022 18:00 29,5 C 34,1 C 24,6 C 45 % 1025,3 hPa 0,0 l/m 1,00 h 0,00 h 363 W/m 12,7 km/h (3 Bft) 96,00 %
09.08.2022 19:00 27,5 C 26,8 C 22,3 C 49 % 1025,3 hPa 0,0 l/m 0,33 h 0,00 h 101 W/m 14,2 km/h (3 Bft) 98,35 %
09.08.2022 20:00 25,9 C 24,7 C 20,8 C 52 % 1025,6 hPa 0,0 l/m 0,00 h 0,00 h 19 W/m 9,1 km/h (2 Bft) 98,72 %
09.08.2022 21:00 24,5 C 23,3 C 19,4 C 55 % 1025,9 hPa 0,0 l/m 0,00 h 0,00 h 5 W/m 7,3 km/h (2 Bft) 96,38 %
09.08.2022 22:00 23,4 C 22,2 C 18,4 C 58 % 1026,1 hPa 0,0 l/m 0,00 h 0,00 h 0 W/m 7,6 km/h (2 Bft) 99,15 %
09.08.2022 23:00 22,3 C 20,9 C 17,3 C 62 % 1026,1 hPa 0,0 l/m 0,00 h 0,00 h 0 W/m 5,8 km/h (2 Bft) 96,44 %
10.08.2022 00:00 21,7 C 20,6 C 17,2 C 64 % 1026,4 hPa 0,0 l/m 0,00 h 0,00 h 0 W/m 7,2 km/h (2 Bft) 94,58 %
10.08.2022 01:00 21,2 C 20,1 C 16,6 C 66 % 1026,4 hPa 0,0 l/m 0,00 h 0,00 h 0 W/m 10,4 km/h (2 Bft) 98,08 %
10.08.2022 02:00 20,3 C 19,0 C 15,6 C 69 % 1026,2 hPa 0,0 l/m 0,00 h 0,00 h 0 W/m 6,6 km/h (2 Bft) 97,51 %
10.08.2022 03:00 19,4 C 18,3 C 15,0 C 73 % 1025,9 hPa 0,0 l/m 0,00 h 0,00 h 0 W/m 6,5 km/h (2 Bft) 97,22 %
10.08.2022 04:00 18,7 C 17,5 C 14,1 C 76 % 1025,8 hPa 0,0 l/m 0,00 h 0,00 h 0 W/m 4,4 km/h (1 Bft) 96,87 %
10.08.2022 05:00 17,8 C 16,5 C 13,1 C 80 % 1025,8 hPa 0,0 l/m 0,00 h 0,00 h 0 W/m 1,6 km/h (1 Bft) 96,73 %
10.08.2022 06:00 17,0 C 16,1 C 12,8 C 83 % 1025,9 hPa 0,0 l/m 0,00 h 0,00 h 14 W/m 1,1 km/h (1 Bft) 97,43 %
10.08.2022 07:00 17,1 C 16,7 C 13,1 C 85 % 1025,9 hPa 0,0 l/m 0,00 h 0,00 h 34 W/m 4,1 km/h (1 Bft) 99,29 %
10.08.2022 08:00 18,7 C 19,2 C 15,1 C 79 % 1026,0 hPa 0,0 l/m 0,50 h 0,00 h 177 W/m 6,9 km/h (2 Bft) 94,87 %
10.08.2022 09:00 22,6 C 27,7 C 18,7 C 66 % 1026,1 hPa 0,0 l/m 1,00 h 0,00 h 449 W/m 8,4 km/h (2 Bft) 99,18 %
10.08.2022 10:00 24,6 C 26,8 C 19,4 C 58 % 1026,2 hPa 0,0 l/m 1,00 h 0,00 h 599 W/m 7,4 km/h (2 Bft) 97,15 %
10.08.2022 11:00 26,8 C 27,9 C 21,8 C 52 % 1025,8 hPa 0,0 l/m 1,00 h 0,00 h 751 W/m 9,4 km/h (2 Bft) 98,22 %
10.08.2022 12:00 29,1 C 31,8 C 26,4 C 46 % 1025,2 hPa 0,0 l/m 1,00 h 0,00 h 829 W/m 10,2 km/h (2 Bft) 97,82 %
10.08.2022 13:00 30,5 C 31,8 C 24,5 C 43 % 1024,7 hPa 0,0 l/m 1,00 h 0,00 h 852 W/m 11,6 km/h (2 Bft) 97,80 %
10.08.2022 14:00 31,2 C 34,3 C 25,2 C 42 % 1024,2 hPa 0,0 l/m 1,00 h 0,00 h 850 W/m 12,2 km/h (3 Bft) 96,87 %
10.08.2022 15:00 31,7 C 34,8 C 25,7 C 40 % 1023,5 hPa 0,0 l/m 1,00 h 0,00 h 786 W/m 15,1 km/h (3 Bft) 98,22 %
10.08.2022 16:00 31,9 C 36,7 C 26,3 C 38 % 1023,0 hPa 0,0 l/m 1,00 h 0,00 h 678 W/m 14,6 km/h (3 Bft) 97,58 %
10.08.2022 17:00 32,0 C 37,6 C 27,3 C 38 % 1022,6 hPa 0,0 l/m 1,00 h 0,00 h 536 W/m 13,7 km/h (3 Bft) 96,51 %
10.08.2022 18:00 31,4 C 36,8 C 26,7 C 39 % 1022,3 hPa 0,0 l/m 1,00 h 0,00 h 365 W/m 12,8 km/h (3 Bft) 98,05 %
10.08.2022 19:00 29,4 C 28,9 C 24,2 C 42 % 1022,0 hPa 0,0 l/m 0,30 h 0,00 h 101 W/m 11,1 km/h (2 Bft) 98,36 %
10.08.2022 20:00 27,5 C 26,2 C 22,2 C 45 % 1022,0 hPa 0,0 l/m 0,00 h 0,00 h 20 W/m 7,4 km/h (2 Bft) 97,93 %
10.08.2022 21:00 25,5 C 23,8 C 19,9 C 50 % 1022,3 hPa 0,0 l/m 0,00 h 0,00 h 5 W/m 3,0 km/h (1 Bft) 96,23 %
10.08.2022 22:00 24,1 C 22,7 C 18,7 C 54 % 1022,6 hPa 0,0 l/m 0,00 h 0,00 h 0 W/m 3,6 km/h (1 Bft) 99,29 %
10.08.2022 23:00 23,0 C 21,9 C 18,0 C 56 % 1022,6 hPa 0,0 l/m 0,00 h 0,00 h 0 W/m 3,0 km/h (1 Bft) 96,66 %
11.08.2022 00:00 22,2 C 21,0 C 17,4 C 58 % 1022,5 hPa 0,0 l/m 0,00 h 0,00 h 0 W/m 3,4 km/h (1 Bft) 98,19 %
11.08.2022 01:00 21,1 C 19,8 C 16,3 C 63 % 1022,4 hPa 0,0 l/m 0,00 h 0,00 h 0 W/m 2,7 km/h (1 Bft) 98,10 %
11.08.2022 02:00 19,8 C 18,5 C 15,1 C 68 % 1022,4 hPa 0,0 l/m 0,00 h 0,00 h 0 W/m 0,6 km/h (0 Bft) 96,58 %
11.08.2022 03:00 19,0 C 17,8 C 14,4 C 70 % 1022,3 hPa 0,0 l/m 0,00 h 0,00 h 0 W/m 1,2 km/h (1 Bft) 98,55 %
11.08.2022 04:00 18,3 C 17,0 C 13,7 C 73 % 1022,3 hPa 0,0 l/m 0,00 h 0,00 h 0 W/m 0,2 km/h (0 Bft) 97,89 %
11.08.2022 05:00 17,7 C 16,4 C 13,1 C 76 % 1022,3 hPa 0,0 l/m 0,00 h 0,00 h 0 W/m 0,2 km/h (0 Bft) 96,11 %
11.08.2022 06:00 17,0 C 16,1 C 12,8 C 77 % 1022,2 hPa 0,0 l/m 0,00 h 0,00 h 11 W/m 1,4 km/h (1 Bft) 98,16 %
11.08.2022 07:00 17,1 C 16,6 C 13,2 C 79 % 1022,4 hPa 0,0 l/m 0,00 h 0,00 h 26 W/m 2,5 km/h (1 Bft) 97,51 %
11.08.2022 08:00 18,4 C 19,3 C 15,0 C 77 % 1022,5 hPa 0,0 l/m 0,37 h 0,00 h 158 W/m 3,3 km/h (1 Bft) 97,01 %
11.08.2022 09:00 23,3 C 30,0 C 19,8 C 60 % 1022,5 hPa 0,0 l/m 1,00 h 0,00 h 460 W/m 6,3 km/h (2 Bft) 99,57 %
11.08.2022 10:00 26,1 C 27,9 C 20,5 C 50 % 1022,5 hPa 0,0 l/m 0,97 h 0,00 h 596 W/m 7,4 km/h (2 Bft) 96,15 %
11.08.2022 11:00 28,1 C 29,0 C 22,8 C 45 % 1022,4 hPa 0,0 l/m 1,00 h 0,00 h 742 W/m 6,7 km/h (2 Bft) 97,37 %
11.08.2022 12:00 30,8 C 33,1 C 27,7 C 39 % 1022,0 hPa 0,0 l/m 0,88 h 0,00 h 830 W/m 8,6 km/h (2 Bft) 99,06 %
11.08.2022 13:00 31,3 C 32,2 C 25,1 C 38 % 1021,5 hPa 0,0 l/m 1,00 h 0,00 h 849 W/m 9,4 km/h (2 Bft) 96,65 %
11.08.2022 14:00 32,2 C 35,3 C 25,7 C 38 % 1020,8 hPa 0,0 l/m 1,00 h 0,00 h 834 W/m 10,1 km/h (2 Bft) 98,86 %
11.08.2022 15:00 32,6 C 35,6 C 26,3 C 37 % 1020,1 hPa 0,0 l/m 1,00 h 0,00 h 772 W/m 10,9 km/h (2 Bft) 97,01 %
11.08.2022 16:00 32,9 C 37,5 C 27,1 C 36 % 1019,6 hPa 0,0 l/m 1,00 h 0,00 h 663 W/m 13,2 km/h (3 Bft) 97,72 %
11.08.2022 17:00 33,0 C 38,3 C 28,1 C 36 % 1019,2 hPa 0,0 l/m 1,00 h 0,00 h 522 W/m 12,5 km/h (3 Bft) 99,29 %
11.08.2022 18:00 32,7 C 36,9 C 27,5 C 37 % 1018,8 hPa 0,0 l/m 1,00 h 0,00 h 346 W/m 11,8 km/h (2 Bft) 94,62 %
11.08.2022 19:00 30,3 C 29,2 C 24,0 C 41 % 1018,6 hPa 0,0 l/m 0,27 h 0,00 h 94 W/m 9,9 km/h (2 Bft) 98,43 %
11.08.2022 20:00 27,9 C 26,5 C 22,0 C 45 % 1018,7 hPa 0,0 l/m 0,00 h 0,00 h 22 W/m 5,7 km/h (1 Bft) 97,79 %
11.08.2022 21:00 26,3 C 24,5 C 19,9 C 48 % 1019,1 hPa 0,0 l/m 0,00 h 0,00 h 4 W/m 3,4 km/h (1 Bft) 98,08 %
11.08.2022 22:00 24,9 C 23,3 C 18,8 C 50 % 1019,3 hPa 0,0 l/m 0,00 h 0,00 h 0 W/m 2,0 km/h (1 Bft) 96,80 %
11.08.2022 23:00 23,6 C 21,8 C 17,6 C 55 % 1019,4 hPa 0,0 l/m 0,00 h 0,00 h 0 W/m 0,7 km/h (0 Bft) 97,94 %
12.08.2022 00:00 22,4 C 21,1 C 17,2 C 58 % 1019,3 hPa 0,0 l/m 0,00 h 0,00 h 0 W/m 2,6 km/h (1 Bft) 97,86 %
12.08.2022 01:00 21,5 C 20,1 C 16,5 C 62 % 1019,3 hPa 0,0 l/m 0,00 h 0,00 h 0 W/m 1,8 km/h (1 Bft) 97,86 %
12.08.2022 02:00 20,2 C 18,8 C 15,1 C 68 % 1019,2 hPa 0,0 l/m 0,00 h 0,00 h 0 W/m 0,9 km/h (0 Bft) 97,33 %
12.08.2022 03:00 19,4 C 17,9 C 14,5 C 70 % 1019,3 hPa 0,0 l/m 0,00 h 0,00 h 0 W/m 0,1 km/h (0 Bft) 97,79 %
12.08.2022 04:00 18,3 C 16,8 C 13,5 C 75 % 1019,3 hPa 0,0 l/m 0,00 h 0,00 h 0 W/m 0,0 km/h (0 Bft) 98,72 %
12.08.2022 05:00 17,4 C 16,0 C 12,8 C 79 % 1019,2 hPa 0,0 l/m 0,00 h 0,00 h 0 W/m 0,0 km/h (0 Bft) 97,44 %
12.08.2022 06:00 16,8 C 16,1 C 12,8 C 81 % 1019,3 hPa 0,0 l/m 0,00 h 0,00 h 11 W/m 0,4 km/h (0 Bft) 96,87 %
12.08.2022 07:00 17,0 C 16,8 C 13,4 C 81 % 1019,3 hPa 0,0 l/m 0,00 h 0,00 h 27 W/m 1,1 km/h (0 Bft) 98,63 %
12.08.2022 08:00 18,4 C 19,8 C 15,2 C 78 % 1019,5 hPa 0,0 l/m 0,27 h 0,00 h 138 W/m 0,5 km/h (0 Bft) 97,20 %
12.08.2022 09:00 24,0 C 29,9 C 19,8 C 58 % 1019,5 hPa 0,0 l/m 1,00 h 0,00 h 444 W/m 6,2 km/h (2 Bft) 97,29 %
12.08.2022 10:00 26,8 C 28,2 C 21,1 C 48 % 1019,6 hPa 0,0 l/m 0,93 h 0,00 h 569 W/m 8,4 km/h (2 Bft) 99,64 %
12.08.2022 11:00 28,7 C 29,2 C 23,3 C 43 % 1019,4 hPa 0,0 l/m 1,00 h 0,00 h 738 W/m 9,5 km/h (2 Bft) 95,58 %
12.08.2022 12:00 30,8 C 32,3 C 27,5 C 39 % 1018,8 hPa 0,0 l/m 1,00 h 0,00 h 820 W/m 11,4 km/h (2 Bft) 98,42 %
12.08.2022 13:00 31,8 C 32,2 C 25,8 C 37 % 1018,1 hPa 0,0 l/m 1,00 h 0,00 h 858 W/m 13,0 km/h (3 Bft) 98,08 %
12.08.2022 14:00 32,5 C 35,3 C 26,3 C 36 % 1017,6 hPa 0,0 l/m 1,00 h 0,00 h 849 W/m 12,4 km/h (3 Bft) 96,43 %
12.08.2022 15:00 33,0 C 36,6 C 26,7 C 34 % 1017,1 hPa 0,0 l/m 1,00 h 0,00 h 792 W/m 11,7 km/h (2 Bft) 99,36 %
12.08.2022 16:00 33,2 C 38,6 C 27,4 C 33 % 1016,7 hPa 0,0 l/m 1,00 h 0,00 h 681 W/m 12,0 km/h (2 Bft) 96,15 %
12.08.2022 17:00 33,3 C 39,0 C 28,5 C 33 % 1016,4 hPa 0,0 l/m 1,00 h 0,00 h 536 W/m 13,4 km/h (3 Bft) 97,58 %
12.08.2022 18:00 32,4 C 37,1 C 27,5 C 34 % 1016,0 hPa 0,0 l/m 1,00 h 0,00 h 359 W/m 16,5 km/h (3 Bft) 99,01 %
12.08.2022 19:00 30,2 C 29,2 C 24,9 C 36 % 1015,9 hPa 0,0 l/m 0,23 h 0,00 h 82 W/m 12,9 km/h (3 Bft) 96,86 %
12.08.2022 20:00 28,1 C 26,7 C 22,8 C 40 % 1016,1 hPa 0,0 l/m 0,00 h 0,00 h 17 W/m 9,1 km/h (2 Bft) 98,58 %
12.08.2022 21:00 26,0 C 24,2 C 20,4 C 46 % 1016,4 hPa 0,0 l/m 0,00 h 0,00 h 5 W/m 3,6 km/h (1 Bft) 95,52 %
12.08.2022 22:00 24,0 C 22,2 C 18,4 C 53 % 1016,8 hPa 0,0 l/m 0,00 h 0,00 h 0 W/m 1,3 km/h (1 Bft) 99,79 %
12.08.2022 23:00 22,3 C 20,6 C 17,0 C 59 % 1016,9 hPa 0,0 l/m 0,00 h 0,00 h 0 W/m 0,2 km/h (0 Bft) 97,36 %
13.08.2022 00:00 20,9 C 19,3 C 15,9 C 63 % 1017,0 hPa 0,0 l/m 0,00 h 0,00 h 0 W/m 0,0 km/h (0 Bft) 96,97 %
13.08.2022 01:00 19,9 C 18,6 C 15,0 C 66 % 1017,0 hPa 0,0 l/m 0,00 h 0,00 h 0 W/m 0,1 km/h (0 Bft) 95,90 %
13.08.2022 02:00 19,0 C 17,7 C 14,2 C 69 % 1016,9 hPa 0,0 l/m 0,00 h 0,00 h 0 W/m 0,0 km/h (0 Bft) 97,35 %
13.08.2022 03:00 18,3 C 17,0 C 13,6 C 70 % 1016,8 hPa 0,0 l/m 0,00 h 0,00 h 0 W/m 0,0 km/h (0 Bft) 97,75 %
13.08.2022 04:00 17,5 C 16,1 C 12,8 C 73 % 1016,9 hPa 0,0 l/m 0,00 h 0,00 h 0 W/m 0,0 km/h (0 Bft) 95,86 %
13.08.2022 05:00 16,7 C 15,4 C 12,2 C 76 % 1017,0 hPa 0,0 l/m 0,00 h 0,00 h 0 W/m 0,0 km/h (0 Bft) 99,48 %
13.08.2022 06:00 16,2 C 15,0 C 12,0 C 79 % 1017,0 hPa 0,0 l/m 0,00 h 0,00 h 10 W/m 0,0 km/h (0 Bft) 97,20 %
13.08.2022 07:00 16,2 C 16,0 C 12,5 C 81 % 1017,2 hPa 0,0 l/m 0,00 h 0,00 h 23 W/m 0,0 km/h (0 Bft) 95,17 %
13.08.2022 08:00 17,5 C 19,3 C 14,6 C 81 % 1017,3 hPa 0,0 l/m 0,23 h 0,00 h 115 W/m 2,2 km/h (1 Bft) 97,95 %
13.08.2022 09:00 23,8 C 29,8 C 20,3 C 58 % 1017,4 hPa 0,0 l/m 1,00 h 0,00 h 448 W/m 6,0 km/h (2 Bft) 97,44 %
13.08.2022 10:00 26,5 C 27,6 C 21,0 C 50 % 1017,4 hPa 0,0 l/m 0,83 h 0,00 h 538 W/m 7,0 km/h (2 Bft) 98,00 %
13.08.2022 11:00 28,4 C 29,7 C 23,2 C 45 % 1017,2 hPa 0,0 l/m 1,00 h 0,00 h 747 W/m 9,4 km/h (2 Bft) 97,94 %
13.08.2022 12:00 30,2 C 35,0 C 27,5 C 41 % 1016,8 hPa 0,0 l/m 1,00 h 0,00 h 831 W/m 9,4 km/h (2 Bft) 98,43 %
13.08.2022 13:00 31,4 C 34,0 C 25,3 C 39 % 1016,3 hPa 0,0 l/m 1,00 h 0,00 h 860 W/m 9,2 km/h (2 Bft) 96,61 %
13.08.2022 14:00 32,4 C 39,4 C 26,0 C 37 % 1015,7 hPa 0,0 l/m 0,95 h 0,00 h 851 W/m 12,4 km/h (3 Bft) 97,72 %
13.08.2022 15:00 32,8 C 37,8 C 26,6 C 36 % 1015,2 hPa 0,0 l/m 1,00 h 0,00 h 782 W/m 9,9 km/h (2 Bft) 96,72 %
13.08.2022 16:00 33,1 C 36,6 C 26,9 C 34 % 1014,6 hPa 0,0 l/m 1,00 h 0,00 h 676 W/m 9,6 km/h (2 Bft) 97,72 %
13.08.2022 17:00 33,5 C 37,2 C 27,9 C 34 % 1013,9 hPa 0,0 l/m 1,00 h 0,00 h 527 W/m 9,7 km/h (2 Bft) 97,72 %
13.08.2022 18:00 33,7 C 37,5 C 27,7 C 35 % 1013,0 hPa 0,0 l/m 1,00 h 0,00 h 352 W/m 7,7 km/h (2 Bft) 97,72 %
13.08.2022 19:00 30,9 C 29,6 C 24,5 C 41 % 1012,6 hPa 0,0 l/m 0,20 h 0,00 h 75 W/m 10,6 km/h (2 Bft) 98,72 %
13.08.2022 20:00 28,7 C 26,9 C 22,5 C 47 % 1012,7 hPa 0,0 l/m 0,00 h 0,00 h 17 W/m 4,7 km/h (1 Bft) 97,72 %
13.08.2022 21:00 26,7 C 24,9 C 20,3 C 50 % 1012,8 hPa 0,0 l/m 0,00 h 0,00 h 1 W/m 1,5 km/h (1 Bft) 97,94 %
13.08.2022 22:00 25,2 C 23,6 C 19,3 C 54 % 1012,9 hPa 0,0 l/m 0,00 h 0,00 h 0 W/m 2,2 km/h (1 Bft) 98,79 %
13.08.2022 23:00 23,7 C 22,1 C 18,2 C 60 % 1012,8 hPa 0,0 l/m 0,00 h 0,00 h 0 W/m 1,6 km/h (1 Bft) 97,22 %
14.08.2022 00:00 22,1 C 20,4 C 16,9 C 67 % 1012,8 hPa 0,0 l/m 0,00 h 0,00 h 0 W/m 0,0 km/h (0 Bft) 97,89 %
14.08.2022 01:00 22,1 C 21,7 C 18,1 C 64 % 1012,8 hPa 0,0 l/m 0,00 h 0,00 h 0 W/m 6,1 km/h (2 Bft) 97,79 %
14.08.2022 02:00 23,4 C 22,2 C 18,4 C 61 % 1012,2 hPa 0,0 l/m 0,00 h 0,00 h 0 W/m 3,6 km/h (1 Bft) 97,94 %
14.08.2022 03:00 21,7 C 19,3 C 15,8 C 69 % 1011,5 hPa 0,0 l/m 0,00 h 0,00 h 0 W/m 0,1 km/h (0 Bft) 97,29 %
14.08.2022 04:00 19,8 C 18,1 C 14,8 C 76 % 1011,1 hPa 0,0 l/m 0,00 h 0,00 h 0 W/m 0,0 km/h (0 Bft) 98,10 %
14.08.2022 05:00 18,8 C 17,4 C 14,1 C 80 % 1010,9 hPa 0,0 l/m 0,00 h 0,00 h 0 W/m 0,3 km/h (0 Bft) 96,02 %
14.08.2022 06:00 18,0 C 16,8 C 13,8 C 83 % 1010,7 hPa 0,0 l/m 0,00 h 0,00 h 11 W/m 0,9 km/h (0 Bft) 98,93 %
14.08.2022 07:00 18,1 C 17,8 C 14,3 C 85 % 1010,4 hPa 0,0 l/m 0,00 h 0,00 h 28 W/m 1,6 km/h (1 Bft) 97,65 %
14.08.2022 08:00 20,3 C 21,5 C 17,0 C 82 % 1010,1 hPa 0,0 l/m 0,20 h 0,00 h 113 W/m 7,0 km/h (2 Bft) 96,16 %
14.08.2022 09:00 24,8 C 28,6 C 20,1 C 67 % 1009,7 hPa 0,0 l/m 1,00 h 0,00 h 432 W/m 9,3 km/h (2 Bft) 99,36 %
14.08.2022 10:00 26,5 C 27,0 C 21,3 C 63 % 1009,5 hPa 0,0 l/m 0,87 h 0,00 h 501 W/m 9,7 km/h (2 Bft) 96,51 %
14.08.2022 11:00 28,1 C 29,4 C 23,2 C 58 % 1009,1 hPa 0,0 l/m 1,00 h 0,00 h 687 W/m 9,1 km/h (2 Bft) 97,51 %
14.08.2022 12:00 30,4 C 35,8 C 27,5 C 50 % 1008,4 hPa 0,0 l/m 1,00 h 0,00 h 804 W/m 9,9 km/h (2 Bft) 98,45 %
14.08.2022 13:00 31,8 C 33,8 C 26,0 C 45 % 1007,9 hPa 0,0 l/m 1,00 h 0,00 h 836 W/m 9,2 km/h (2 Bft) 96,08 %
14.08.2022 14:00 32,9 C 39,8 C 26,7 C 42 % 1007,1 hPa 0,0 l/m 1,00 h 0,00 h 834 W/m 10,1 km/h (2 Bft) 98,64 %
14.08.2022 15:00 33,8 C 38,5 C 27,5 C 39 % 1006,2 hPa 0,0 l/m 1,00 h 0,00 h 786 W/m 10,0 km/h (2 Bft) 98,01 %
14.08.2022 16:00 33,5 C 35,9 C 27,5 C 41 % 1005,6 hPa 0,0 l/m 0,72 h 0,00 h 541 W/m 8,1 km/h (2 Bft) 96,17 %
14.08.2022 17:00 33,7 C 36,1 C 28,0 C 41 % 1005,2 hPa 0,0 l/m 1,00 h 0,00 h 448 W/m 7,6 km/h (2 Bft) 98,74 %
14.08.2022 18:00 32,1 C 31,6 C 26,1 C 45 % 1004,7 hPa 0,0 l/m 0,37 h 0,00 h 161 W/m 5,5 km/h (1 Bft) 97,72 %
14.08.2022 19:00 30,8 C 29,8 C 25,1 C 49 % 1004,3 hPa 0,0 l/m 0,20 h 0,00 h 91 W/m 5,4 km/h (1 Bft) 97,01 %
14.08.2022 20:00 29,3 C 27,0 C 22,6 C 54 % 1004,2 hPa 0,0 l/m 0,00 h 0,00 h 21 W/m 1,1 km/h (0 Bft) 97,79 %
14.08.2022 21:00 27,1 C 25,0 C 21,2 C 60 % 1004,3 hPa 0,0 l/m 0,00 h 0,00 h 0 W/m 1,8 km/h (1 Bft) 97,16 %
14.08.2022 22:00 25,4 C 23,4 C 19,6 C 66 % 1004,2 hPa 0,0 l/m 0,00 h 0,00 h 0 W/m 0,5 km/h (0 Bft) 98,50 %
14.08.2022 23:00 24,3 C 22,8 C 19,3 C 69 % 1004,1 hPa 0,0 l/m 0,00 h 0,00 h 0 W/m 1,1 km/h (0 Bft) 96,33 %
Min-Datum _ 08.08.22 08.08.22 08.08.22 12.08.22 14.08.22 - - - - 08.08.22 09.08.22
_ Min-Zeit 06:14 05:54 05:18 16:52 23:52 - - - - 02:32 00:02
Minimum _ 14,0 C 12,8 C 10,0 C 31 % 1003,9 hPa - - - - 0,0 km/h (0 Bft) 12,50 %
Max-Datum _ 13.08.22 14.08.22 11.08.22 08.08.22 09.08.22 08.08.22 11.08.22 08.08.22 08.08.22 08.08.22 08.08.22
_ Max-Zeit 18:24 14:50 12:36 07:00 10:58 00:00 12:16 00:00 14:02 15:10 00:00
Maximum _ 34,3 C 41,7 C 32,2 C 90 % 1027,5 hPa 0,0 l/m 0,08 h 0,00 h 944 W/m 35,4 km/h
NW (5 Bft)
100,00 %
Durchschnitt _ 24,3 C 25,1 C 19,4 C 59 % 1019,8 hPa #0,0 l/m #73:05 h #0 min. 435 W/m 6,9 km/h (2 Bft) 97,52 %
© 2022 W. Hausmann